sensor_id;sensor_type;location;lat;lon;timestamp;P1;durP1;ratioP1;P2;durP2;ratioP2
51475;SDS011;37554;50.362;7.568;2022-09-09T00:01:30;2.90;;;0.40;;
51475;SDS011;37554;50.362;7.568;2022-09-09T00:04:15;1.63;;;0.40;;
51475;SDS011;37554;50.362;7.568;2022-09-09T00:09:44;2.25;;;0.43;;
51475;SDS011;37554;50.362;7.568;2022-09-09T00:12:20;3.35;;;0.45;;
51475;SDS011;37554;50.362;7.568;2022-09-09T00:14:56;2.70;;;0.68;;
51475;SDS011;37554;50.362;7.568;2022-09-09T00:17:37;1.40;;;0.40;;
51475;SDS011;37554;50.362;7.568;2022-09-09T00:22:39;2.70;;;0.85;;
51475;SDS011;37554;50.362;7.568;2022-09-09T00:25:51;1.38;;;0.70;;
51475;SDS011;37554;50.362;7.568;2022-09-09T00:28:27;2.05;;;0.55;;
51475;SDS011;37554;50.362;7.568;2022-09-09T00:30:59;1.48;;;0.85;;
51475;SDS011;37554;50.362;7.568;2022-09-09T00:33:33;1.58;;;0.40;;
51475;SDS011;37554;50.362;7.568;2022-09-09T00:35:59;1.80;;;0.50;;
51475;SDS011;37554;50.362;7.568;2022-09-09T00:41:09;1.10;;;0.43;;
51475;SDS011;37554;50.362;7.568;2022-09-09T00:43:44;1.38;;;0.40;;
51475;SDS011;37554;50.362;7.568;2022-09-09T00:46:27;1.50;;;0.50;;
51475;SDS011;37554;50.362;7.568;2022-09-09T01:00:15;1.48;;;0.45;;
51475;SDS011;37554;50.362;7.568;2022-09-09T01:05:28;1.42;;;0.47;;
51475;SDS011;37554;50.362;7.568;2022-09-09T01:07:58;2.38;;;0.50;;
51475;SDS011;37554;50.362;7.568;2022-09-09T01:10:39;1.40;;;0.50;;
51475;SDS011;37554;50.362;7.568;2022-09-09T01:13:16;1.23;;;0.60;;
51475;SDS011;37554;50.362;7.568;2022-09-09T01:15:55;1.83;;;0.57;;
51475;SDS011;37554;50.362;7.568;2022-09-09T01:18:26;2.38;;;0.60;;
51475;SDS011;37554;50.362;7.568;2022-09-09T01:26:42;1.80;;;0.57;;
51475;SDS011;37554;50.362;7.568;2022-09-09T01:29:10;1.75;;;0.45;;
51475;SDS011;37554;50.362;7.568;2022-09-09T01:31:39;0.80;;;0.30;;
51475;SDS011;37554;50.362;7.568;2022-09-09T01:34:11;2.10;;;0.40;;
51475;SDS011;37554;50.362;7.568;2022-09-09T01:36:39;2.00;;;0.50;;
51475;SDS011;37554;50.362;7.568;2022-09-09T01:39:29;2.08;;;0.50;;
51475;SDS011;37554;50.362;7.568;2022-09-09T01:41:56;1.70;;;0.70;;
51475;SDS011;37554;50.362;7.568;2022-09-09T01:44:22;2.60;;;0.57;;
51475;SDS011;37554;50.362;7.568;2022-09-09T01:46:48;1.27;;;0.32;;
51475;SDS011;37554;50.362;7.568;2022-09-09T01:49:13;2.75;;;0.77;;
51475;SDS011;37554;50.362;7.568;2022-09-09T01:51:39;1.50;;;0.47;;
51475;SDS011;37554;50.362;7.568;2022-09-09T01:54:07;1.73;;;0.50;;
51475;SDS011;37554;50.362;7.568;2022-09-09T02:02:10;2.38;;;0.68;;
51475;SDS011;37554;50.362;7.568;2022-09-09T02:05:02;1.67;;;0.65;;
51475;SDS011;37554;50.362;7.568;2022-09-09T02:07:47;1.00;;;0.40;;
51475;SDS011;37554;50.362;7.568;2022-09-09T02:13:16;2.05;;;0.45;;
51475;SDS011;37554;50.362;7.568;2022-09-09T02:16:00;1.70;;;0.60;;
51475;SDS011;37554;50.362;7.568;2022-09-09T02:18:35;2.55;;;0.70;;
51475;SDS011;37554;50.362;7.568;2022-09-09T02:21:15;3.67;;;0.60;;
51475;SDS011;37554;50.362;7.568;2022-09-09T02:23:43;1.70;;;0.45;;
51475;SDS011;37554;50.362;7.568;2022-09-09T02:26:12;0.85;;;0.47;;
51475;SDS011;37554;50.362;7.568;2022-09-09T02:28:44;1.42;;;0.65;;
51475;SDS011;37554;50.362;7.568;2022-09-09T02:31:11;4.05;;;0.60;;
51475;SDS011;37554;50.362;7.568;2022-09-09T02:33:39;1.45;;;0.40;;
51475;SDS011;37554;50.362;7.568;2022-09-09T02:36:09;1.00;;;0.50;;
51475;SDS011;37554;50.362;7.568;2022-09-09T02:38:38;1.38;;;0.40;;
51475;SDS011;37554;50.362;7.568;2022-09-09T02:41:23;1.05;;;0.40;;
51475;SDS011;37554;50.362;7.568;2022-09-09T02:43:56;1.33;;;0.50;;
51475;SDS011;37554;50.362;7.568;2022-09-09T02:49:01;2.33;;;0.52;;
51475;SDS011;37554;50.362;7.568;2022-09-09T02:51:35;1.80;;;0.40;;
51475;SDS011;37554;50.362;7.568;2022-09-09T02:56:58;2.58;;;0.55;;
51475;SDS011;37554;50.362;7.568;2022-09-09T02:59:50;2.40;;;0.60;;
51475;SDS011;37554;50.362;7.568;2022-09-09T03:02:19;4.53;;;0.63;;
51475;SDS011;37554;50.362;7.568;2022-09-09T03:04:45;1.48;;;0.50;;
51475;SDS011;37554;50.362;7.568;2022-09-09T03:07:15;1.80;;;0.65;;
51475;SDS011;37554;50.362;7.568;2022-09-09T03:09:42;1.75;;;0.35;;
51475;SDS011;37554;50.362;7.568;2022-09-09T03:12:08;2.08;;;0.60;;
51475;SDS011;37554;50.362;7.568;2022-09-09T03:14:36;1.40;;;0.43;;
51475;SDS011;37554;50.362;7.568;2022-09-09T03:17:03;2.67;;;0.60;;
51475;SDS011;37554;50.362;7.568;2022-09-09T03:19:29;2.20;;;0.57;;
51475;SDS011;37554;50.362;7.568;2022-09-09T03:21:56;2.70;;;0.75;;
51475;SDS011;37554;50.362;7.568;2022-09-09T03:24:25;2.08;;;0.75;;
51475;SDS011;37554;50.362;7.568;2022-09-09T03:26:51;1.77;;;0.55;;
51475;SDS011;37554;50.362;7.568;2022-09-09T03:29:17;1.75;;;0.50;;
51475;SDS011;37554;50.362;7.568;2022-09-09T03:31:43;1.92;;;0.60;;
51475;SDS011;37554;50.362;7.568;2022-09-09T03:34:09;3.00;;;0.65;;
51475;SDS011;37554;50.362;7.568;2022-09-09T03:36:36;1.58;;;0.60;;
51475;SDS011;37554;50.362;7.568;2022-09-09T03:39:02;0.93;;;0.32;;
51475;SDS011;37554;50.362;7.568;2022-09-09T03:41:28;2.78;;;0.63;;
51475;SDS011;37554;50.362;7.568;2022-09-09T03:43:54;1.42;;;0.70;;
51475;SDS011;37554;50.362;7.568;2022-09-09T03:46:21;4.30;;;0.68;;
51475;SDS011;37554;50.362;7.568;2022-09-09T03:48:48;1.55;;;0.50;;
51475;SDS011;37554;50.362;7.568;2022-09-09T03:51:13;2.35;;;0.68;;
51475;SDS011;37554;50.362;7.568;2022-09-09T03:53:40;1.92;;;0.50;;
51475;SDS011;37554;50.362;7.568;2022-09-09T03:56:06;2.22;;;0.80;;
51475;SDS011;37554;50.362;7.568;2022-09-09T03:58:33;2.35;;;0.52;;
51475;SDS011;37554;50.362;7.568;2022-09-09T04:01:00;2.08;;;0.65;;
51475;SDS011;37554;50.362;7.568;2022-09-09T04:03:38;2.67;;;0.60;;
51475;SDS011;37554;50.362;7.568;2022-09-09T04:06:04;1.52;;;0.43;;
51475;SDS011;37554;50.362;7.568;2022-09-09T04:08:32;2.58;;;0.80;;
51475;SDS011;37554;50.362;7.568;2022-09-09T04:10:58;2.45;;;0.80;;
51475;SDS011;37554;50.362;7.568;2022-09-09T04:13:26;2.58;;;0.90;;
51475;SDS011;37554;50.362;7.568;2022-09-09T04:15:59;3.22;;;0.68;;
51475;SDS011;37554;50.362;7.568;2022-09-09T04:20:53;2.25;;;0.73;;
51475;SDS011;37554;50.362;7.568;2022-09-09T04:23:20;2.92;;;0.50;;
51475;SDS011;37554;50.362;7.568;2022-09-09T04:25:46;2.97;;;0.60;;
51475;SDS011;37554;50.362;7.568;2022-09-09T04:28:13;2.13;;;0.60;;
51475;SDS011;37554;50.362;7.568;2022-09-09T04:30:40;2.25;;;0.80;;
51475;SDS011;37554;50.362;7.568;2022-09-09T04:33:06;2.28;;;0.80;;
51475;SDS011;37554;50.362;7.568;2022-09-09T04:35:32;2.22;;;0.40;;
51475;SDS011;37554;50.362;7.568;2022-09-09T04:37:59;2.40;;;0.50;;
51475;SDS011;37554;50.362;7.568;2022-09-09T04:40:24;2.90;;;0.60;;
51475;SDS011;37554;50.362;7.568;2022-09-09T04:42:50;1.83;;;0.50;;
51475;SDS011;37554;50.362;7.568;2022-09-09T04:45:16;1.65;;;0.60;;
51475;SDS011;37554;50.362;7.568;2022-09-09T04:47:42;2.22;;;0.50;;
51475;SDS011;37554;50.362;7.568;2022-09-09T04:50:07;1.73;;;0.50;;
51475;SDS011;37554;50.362;7.568;2022-09-09T04:52:36;1.67;;;0.50;;
51475;SDS011;37554;50.362;7.568;2022-09-09T04:55:02;2.83;;;0.50;;
51475;SDS011;37554;50.362;7.568;2022-09-09T04:57:28;1.23;;;0.52;;
51475;SDS011;37554;50.362;7.568;2022-09-09T04:59:58;1.33;;;0.50;;
51475;SDS011;37554;50.362;7.568;2022-09-09T05:02:25;1.52;;;0.40;;
51475;SDS011;37554;50.362;7.568;2022-09-09T05:04:51;2.08;;;0.60;;
51475;SDS011;37554;50.362;7.568;2022-09-09T05:07:16;1.05;;;0.47;;
51475;SDS011;37554;50.362;7.568;2022-09-09T05:09:42;0.88;;;0.40;;
51475;SDS011;37554;50.362;7.568;2022-09-09T05:12:08;3.08;;;0.70;;
51475;SDS011;37554;50.362;7.568;2022-09-09T05:14:33;2.83;;;0.80;;
51475;SDS011;37554;50.362;7.568;2022-09-09T05:17:02;2.45;;;0.70;;
51475;SDS011;37554;50.362;7.568;2022-09-09T05:19:27;1.48;;;0.60;;
51475;SDS011;37554;50.362;7.568;2022-09-09T05:21:53;2.88;;;0.60;;
51475;SDS011;37554;50.362;7.568;2022-09-09T05:24:18;2.08;;;0.60;;
51475;SDS011;37554;50.362;7.568;2022-09-09T05:26:44;1.92;;;0.50;;
51475;SDS011;37554;50.362;7.568;2022-09-09T05:29:10;2.63;;;0.80;;
51475;SDS011;37554;50.362;7.568;2022-09-09T05:31:35;3.25;;;0.70;;
51475;SDS011;37554;50.362;7.568;2022-09-09T05:34:01;3.17;;;0.85;;
51475;SDS011;37554;50.362;7.568;2022-09-09T05:36:27;1.75;;;0.55;;
51475;SDS011;37554;50.362;7.568;2022-09-09T05:38:53;1.80;;;0.68;;
51475;SDS011;37554;50.362;7.568;2022-09-09T05:41:18;2.72;;;0.60;;
51475;SDS011;37554;50.362;7.568;2022-09-09T05:43:45;3.75;;;0.82;;
51475;SDS011;37554;50.362;7.568;2022-09-09T05:46:19;5.57;;;0.70;;
51475;SDS011;37554;50.362;7.568;2022-09-09T05:48:46;2.70;;;0.85;;
51475;SDS011;37554;50.362;7.568;2022-09-09T05:51:16;4.43;;;1.08;;
51475;SDS011;37554;50.362;7.568;2022-09-09T05:53:47;6.25;;;0.75;;
51475;SDS011;37554;50.362;7.568;2022-09-09T05:56:17;2.72;;;0.93;;
51475;SDS011;37554;50.362;7.568;2022-09-09T05:58:49;3.78;;;1.00;;
51475;SDS011;37554;50.362;7.568;2022-09-09T06:01:16;2.97;;;0.80;;
51475;SDS011;37554;50.362;7.568;2022-09-09T06:03:46;3.03;;;0.80;;
51475;SDS011;37554;50.362;7.568;2022-09-09T06:06:14;4.15;;;0.60;;
51475;SDS011;37554;50.362;7.568;2022-09-09T06:08:43;5.07;;;1.13;;
51475;SDS011;37554;50.362;7.568;2022-09-09T06:13:37;2.28;;;0.70;;
51475;SDS011;37554;50.362;7.568;2022-09-09T06:16:05;4.43;;;0.80;;
51475;SDS011;37554;50.362;7.568;2022-09-09T06:18:33;5.10;;;1.20;;
51475;SDS011;37554;50.362;7.568;2022-09-09T06:23:31;2.35;;;0.60;;
51475;SDS011;37554;50.362;7.568;2022-09-09T06:26:07;2.50;;;0.73;;
51475;SDS011;37554;50.362;7.568;2022-09-09T06:28:35;4.68;;;0.82;;
51475;SDS011;37554;50.362;7.568;2022-09-09T06:31:02;3.28;;;0.80;;
51475;SDS011;37554;50.362;7.568;2022-09-09T06:33:33;2.83;;;0.73;;
51475;SDS011;37554;50.362;7.568;2022-09-09T06:36:00;4.40;;;0.98;;
51475;SDS011;37554;50.362;7.568;2022-09-09T06:38:28;3.08;;;0.88;;
51475;SDS011;37554;50.362;7.568;2022-09-09T06:40:55;4.97;;;1.27;;
51475;SDS011;37554;50.362;7.568;2022-09-09T06:43:23;2.38;;;0.50;;
51475;SDS011;37554;50.362;7.568;2022-09-09T06:46:00;4.13;;;0.90;;
51475;SDS011;37554;50.362;7.568;2022-09-09T06:48:27;5.35;;;0.77;;
51475;SDS011;37554;50.362;7.568;2022-09-09T06:51:03;4.97;;;1.10;;
51475;SDS011;37554;50.362;7.568;2022-09-09T06:53:38;3.83;;;1.00;;
51475;SDS011;37554;50.362;7.568;2022-09-09T06:58:37;6.15;;;1.08;;
51475;SDS011;37554;50.362;7.568;2022-09-09T07:01:09;5.43;;;0.80;;
51475;SDS011;37554;50.362;7.568;2022-09-09T07:03:37;4.43;;;1.05;;
51475;SDS011;37554;50.362;7.568;2022-09-09T07:06:04;5.03;;;1.00;;
51475;SDS011;37554;50.362;7.568;2022-09-09T07:08:30;6.40;;;0.70;;
51475;SDS011;37554;50.362;7.568;2022-09-09T07:11:02;2.58;;;0.70;;
51475;SDS011;37554;50.362;7.568;2022-09-09T07:13:29;3.65;;;0.90;;
51475;SDS011;37554;50.362;7.568;2022-09-09T07:16:02;7.38;;;0.90;;
51475;SDS011;37554;50.362;7.568;2022-09-09T07:18:35;3.00;;;0.77;;
51475;SDS011;37554;50.362;7.568;2022-09-09T07:21:04;3.92;;;1.08;;
51475;SDS011;37554;50.362;7.568;2022-09-09T07:23:31;3.28;;;1.17;;
51475;SDS011;37554;50.362;7.568;2022-09-09T07:25:57;4.63;;;0.95;;
51475;SDS011;37554;50.362;7.568;2022-09-09T07:28:24;5.65;;;1.20;;
51475;SDS011;37554;50.362;7.568;2022-09-09T07:30:55;2.78;;;0.75;;
51475;SDS011;37554;50.362;7.568;2022-09-09T07:33:23;6.07;;;1.15;;
51475;SDS011;37554;50.362;7.568;2022-09-09T07:35:49;4.65;;;1.00;;
51475;SDS011;37554;50.362;7.568;2022-09-09T07:38:16;5.38;;;1.10;;
51475;SDS011;37554;50.362;7.568;2022-09-09T07:40:42;4.82;;;0.82;;
51475;SDS011;37554;50.362;7.568;2022-09-09T07:43:08;2.67;;;0.65;;
51475;SDS011;37554;50.362;7.568;2022-09-09T07:45:34;3.47;;;0.85;;
51475;SDS011;37554;50.362;7.568;2022-09-09T07:48:00;2.47;;;0.60;;
51475;SDS011;37554;50.362;7.568;2022-09-09T07:50:26;2.97;;;0.98;;
51475;SDS011;37554;50.362;7.568;2022-09-09T07:52:52;5.53;;;0.90;;
51475;SDS011;37554;50.362;7.568;2022-09-09T07:55:18;5.97;;;0.70;;
51475;SDS011;37554;50.362;7.568;2022-09-09T07:57:52;3.08;;;0.80;;
51475;SDS011;37554;50.362;7.568;2022-09-09T08:00:18;4.70;;;1.05;;
51475;SDS011;37554;50.362;7.568;2022-09-09T08:02:44;4.20;;;0.80;;
51475;SDS011;37554;50.362;7.568;2022-09-09T08:05:11;4.25;;;0.95;;
51475;SDS011;37554;50.362;7.568;2022-09-09T08:07:37;2.90;;;1.08;;
51475;SDS011;37554;50.362;7.568;2022-09-09T08:10:03;3.08;;;0.70;;
51475;SDS011;37554;50.362;7.568;2022-09-09T08:12:31;3.60;;;0.90;;
51475;SDS011;37554;50.362;7.568;2022-09-09T08:14:57;4.45;;;1.13;;
51475;SDS011;37554;50.362;7.568;2022-09-09T08:17:22;5.57;;;1.10;;
51475;SDS011;37554;50.362;7.568;2022-09-09T08:19:48;4.22;;;1.00;;
51475;SDS011;37554;50.362;7.568;2022-09-09T08:22:14;4.28;;;1.13;;
51475;SDS011;37554;50.362;7.568;2022-09-09T08:24:39;3.80;;;0.93;;
51475;SDS011;37554;50.362;7.568;2022-09-09T08:27:05;5.68;;;1.00;;
51475;SDS011;37554;50.362;7.568;2022-09-09T08:29:31;6.00;;;1.00;;
51475;SDS011;37554;50.362;7.568;2022-09-09T08:31:57;2.75;;;0.73;;
51475;SDS011;37554;50.362;7.568;2022-09-09T08:34:23;3.10;;;0.68;;
51475;SDS011;37554;50.362;7.568;2022-09-09T08:36:51;4.43;;;0.82;;
51475;SDS011;37554;50.362;7.568;2022-09-09T08:39:18;6.05;;;1.10;;
51475;SDS011;37554;50.362;7.568;2022-09-09T08:50:02;2.72;;;0.70;;
51475;SDS011;37554;50.362;7.568;2022-09-09T08:52:36;4.70;;;0.93;;
51475;SDS011;37554;50.362;7.568;2022-09-09T08:55:15;3.85;;;0.77;;
51475;SDS011;37554;50.362;7.568;2022-09-09T08:58:12;2.60;;;0.98;;
51475;SDS011;37554;50.362;7.568;2022-09-09T09:03:33;2.80;;;0.90;;
51475;SDS011;37554;50.362;7.568;2022-09-09T09:11:56;2.75;;;0.80;;
51475;SDS011;37554;50.362;7.568;2022-09-09T09:14:27;2.35;;;0.70;;
51475;SDS011;37554;50.362;7.568;2022-09-09T09:17:02;2.57;;;0.60;;
51475;SDS011;37554;50.362;7.568;2022-09-09T09:19:32;4.70;;;1.02;;
51475;SDS011;37554;50.362;7.568;2022-09-09T09:24:56;4.40;;;1.27;;
51475;SDS011;37554;50.362;7.568;2022-09-09T09:27:32;2.80;;;0.95;;
51475;SDS011;37554;50.362;7.568;2022-09-09T09:30:00;4.00;;;0.82;;
51475;SDS011;37554;50.362;7.568;2022-09-09T09:32:51;5.55;;;0.90;;
51475;SDS011;37554;50.362;7.568;2022-09-09T09:35:19;3.47;;;1.02;;
51475;SDS011;37554;50.362;7.568;2022-09-09T09:37:45;2.13;;;0.57;;
51475;SDS011;37554;50.362;7.568;2022-09-09T09:40:15;4.95;;;0.82;;
51475;SDS011;37554;50.362;7.568;2022-09-09T09:42:51;3.83;;;0.85;;
51475;SDS011;37554;50.362;7.568;2022-09-09T09:48:08;2.58;;;0.90;;
51475;SDS011;37554;50.362;7.568;2022-09-09T09:50:35;3.67;;;1.10;;
51475;SDS011;37554;50.362;7.568;2022-09-09T09:53:26;2.35;;;0.77;;
51475;SDS011;37554;50.362;7.568;2022-09-09T09:55:55;2.65;;;0.70;;
51475;SDS011;37554;50.362;7.568;2022-09-09T09:58:22;6.30;;;1.20;;
51475;SDS011;37554;50.362;7.568;2022-09-09T10:00:48;3.28;;;1.00;;
51475;SDS011;37554;50.362;7.568;2022-09-09T10:03:23;3.88;;;0.98;;
51475;SDS011;37554;50.362;7.568;2022-09-09T10:05:54;3.88;;;1.00;;
51475;SDS011;37554;50.362;7.568;2022-09-09T10:08:21;4.22;;;0.80;;
51475;SDS011;37554;50.362;7.568;2022-09-09T10:19:31;3.97;;;1.10;;
51475;SDS011;37554;50.362;7.568;2022-09-09T10:30:58;4.50;;;1.50;;
51475;SDS011;37554;50.362;7.568;2022-09-09T10:33:49;4.25;;;1.20;;
51475;SDS011;37554;50.362;7.568;2022-09-09T10:36:18;3.50;;;1.17;;
51475;SDS011;37554;50.362;7.568;2022-09-09T10:49:59;5.03;;;0.88;;
51475;SDS011;37554;50.362;7.568;2022-09-09T10:52:37;2.88;;;0.90;;
51475;SDS011;37554;50.362;7.568;2022-09-09T10:55:26;2.13;;;0.68;;
51475;SDS011;37554;50.362;7.568;2022-09-09T10:58:02;1.85;;;0.50;;
51475;SDS011;37554;50.362;7.568;2022-09-09T11:00:39;2.53;;;0.93;;
51475;SDS011;37554;50.362;7.568;2022-09-09T11:03:15;2.22;;;0.82;;
51475;SDS011;37554;50.362;7.568;2022-09-09T11:05:59;2.22;;;0.75;;
51475;SDS011;37554;50.362;7.568;2022-09-09T11:08:29;2.47;;;0.85;;
51475;SDS011;37554;50.362;7.568;2022-09-09T11:11:15;3.80;;;1.10;;
51475;SDS011;37554;50.362;7.568;2022-09-09T11:19:02;5.47;;;1.20;;
51475;SDS011;37554;50.362;7.568;2022-09-09T11:21:37;2.72;;;1.00;;
51475;SDS011;37554;50.362;7.568;2022-09-09T11:24:18;3.00;;;0.98;;
51475;SDS011;37554;50.362;7.568;2022-09-09T11:27:07;2.13;;;0.70;;
51475;SDS011;37554;50.362;7.568;2022-09-09T11:32:53;2.17;;;0.80;;
51475;SDS011;37554;50.362;7.568;2022-09-09T11:38:38;4.40;;;1.30;;
51475;SDS011;37554;50.362;7.568;2022-09-09T11:41:10;3.17;;;1.13;;
51475;SDS011;37554;50.362;7.568;2022-09-09T11:43:41;2.85;;;1.08;;
51475;SDS011;37554;50.362;7.568;2022-09-09T11:46:13;2.25;;;0.82;;
51475;SDS011;37554;50.362;7.568;2022-09-09T11:48:42;2.35;;;0.88;;
51475;SDS011;37554;50.362;7.568;2022-09-09T11:51:25;2.67;;;0.93;;
51475;SDS011;37554;50.362;7.568;2022-09-09T11:58:57;2.03;;;0.70;;
51475;SDS011;37554;50.362;7.568;2022-09-09T12:04:22;2.20;;;1.00;;
51475;SDS011;37554;50.362;7.568;2022-09-09T12:09:43;2.25;;;0.95;;
51475;SDS011;37554;50.362;7.568;2022-09-09T12:17:16;1.13;;;0.52;;
51475;SDS011;37554;50.362;7.568;2022-09-09T12:19:45;1.45;;;0.45;;
51475;SDS011;37554;50.362;7.568;2022-09-09T12:22:25;2.47;;;0.60;;
51475;SDS011;37554;50.362;7.568;2022-09-09T12:28:02;1.70;;;0.40;;
51475;SDS011;37554;50.362;7.568;2022-09-09T12:33:36;2.90;;;0.50;;
51475;SDS011;37554;50.362;7.568;2022-09-09T12:36:07;1.73;;;0.57;;
51475;SDS011;37554;50.362;7.568;2022-09-09T12:38:48;1.45;;;0.50;;
51475;SDS011;37554;50.362;7.568;2022-09-09T12:41:23;1.45;;;0.50;;
51475;SDS011;37554;50.362;7.568;2022-09-09T12:43:51;1.27;;;0.50;;
51475;SDS011;37554;50.362;7.568;2022-09-09T12:46:33;2.17;;;0.80;;
51475;SDS011;37554;50.362;7.568;2022-09-09T12:49:03;3.70;;;1.20;;
51475;SDS011;37554;50.362;7.568;2022-09-09T12:51:31;2.10;;;0.70;;
51475;SDS011;37554;50.362;7.568;2022-09-09T12:53:58;1.48;;;0.47;;
51475;SDS011;37554;50.362;7.568;2022-09-09T12:56:25;2.30;;;0.73;;
51475;SDS011;37554;50.362;7.568;2022-09-09T12:58:55;1.45;;;0.50;;
51475;SDS011;37554;50.362;7.568;2022-09-09T13:01:24;2.50;;;0.40;;
51475;SDS011;37554;50.362;7.568;2022-09-09T13:03:55;1.80;;;0.60;;
51475;SDS011;37554;50.362;7.568;2022-09-09T13:06:22;3.08;;;0.70;;
51475;SDS011;37554;50.362;7.568;2022-09-09T13:08:52;3.80;;;0.60;;
51475;SDS011;37554;50.362;7.568;2022-09-09T13:14:18;1.17;;;0.40;;
51475;SDS011;37554;50.362;7.568;2022-09-09T13:16:58;1.27;;;0.40;;
51475;SDS011;37554;50.362;7.568;2022-09-09T13:19:26;1.70;;;0.50;;
51475;SDS011;37554;50.362;7.568;2022-09-09T13:21:56;1.10;;;0.45;;
51475;SDS011;37554;50.362;7.568;2022-09-09T13:24:32;1.15;;;0.30;;
51475;SDS011;37554;50.362;7.568;2022-09-09T13:27:00;2.22;;;0.50;;
51475;SDS011;37554;50.362;7.568;2022-09-09T13:29:52;2.28;;;0.50;;
51475;SDS011;37554;50.362;7.568;2022-09-09T13:32:20;1.05;;;0.28;;
51475;SDS011;37554;50.362;7.568;2022-09-09T13:37:31;1.55;;;0.35;;
51475;SDS011;37554;50.362;7.568;2022-09-09T13:39:59;1.15;;;0.32;;
51475;SDS011;37554;50.362;7.568;2022-09-09T13:42:27;1.50;;;0.40;;
51475;SDS011;37554;50.362;7.568;2022-09-09T13:44:55;2.20;;;0.57;;
51475;SDS011;37554;50.362;7.568;2022-09-09T13:47:30;2.35;;;0.40;;
51475;SDS011;37554;50.362;7.568;2022-09-09T13:49:58;2.42;;;0.40;;
51475;SDS011;37554;50.362;7.568;2022-09-09T13:52:23;3.28;;;0.50;;
51475;SDS011;37554;50.362;7.568;2022-09-09T13:54:56;4.15;;;0.63;;
51475;SDS011;37554;50.362;7.568;2022-09-09T13:57:23;1.13;;;0.40;;
51475;SDS011;37554;50.362;7.568;2022-09-09T13:59:50;1.83;;;0.47;;
51475;SDS011;37554;50.362;7.568;2022-09-09T14:02:17;3.05;;;0.43;;
51475;SDS011;37554;50.362;7.568;2022-09-09T14:04:43;1.17;;;0.50;;
51475;SDS011;37554;50.362;7.568;2022-09-09T14:07:15;3.33;;;0.60;;
51475;SDS011;37554;50.362;7.568;2022-09-09T14:09:42;1.13;;;0.30;;
51475;SDS011;37554;50.362;7.568;2022-09-09T14:12:09;0.93;;;0.30;;
51475;SDS011;37554;50.362;7.568;2022-09-09T14:14:36;0.60;;;0.20;;
51475;SDS011;37554;50.362;7.568;2022-09-09T14:17:02;1.38;;;0.30;;
51475;SDS011;37554;50.362;7.568;2022-09-09T14:19:28;1.05;;;0.20;;
51475;SDS011;37554;50.362;7.568;2022-09-09T14:21:55;0.55;;;0.17;;
51475;SDS011;37554;50.362;7.568;2022-09-09T14:24:21;0.63;;;0.10;;
51475;SDS011;37554;50.362;7.568;2022-09-09T14:26:47;0.50;;;0.20;;
51475;SDS011;37554;50.362;7.568;2022-09-09T14:29:12;0.90;;;0.20;;
51475;SDS011;37554;50.362;7.568;2022-09-09T14:31:38;0.70;;;0.20;;
51475;SDS011;37554;50.362;7.568;2022-09-09T14:34:04;1.45;;;0.30;;
51475;SDS011;37554;50.362;7.568;2022-09-09T14:36:31;1.50;;;0.20;;
51475;SDS011;37554;50.362;7.568;2022-09-09T14:38:56;2.67;;;0.45;;
51475;SDS011;37554;50.362;7.568;2022-09-09T14:41:23;4.15;;;0.30;;
51475;SDS011;37554;50.362;7.568;2022-09-09T14:43:50;1.30;;;0.22;;
51475;SDS011;37554;50.362;7.568;2022-09-09T14:46:17;2.03;;;0.50;;
51475;SDS011;37554;50.362;7.568;2022-09-09T14:48:44;4.25;;;0.50;;
51475;SDS011;37554;50.362;7.568;2022-09-09T14:51:20;2.45;;;0.40;;
51475;SDS011;37554;50.362;7.568;2022-09-09T14:53:47;2.08;;;0.40;;
51475;SDS011;37554;50.362;7.568;2022-09-09T14:56:16;3.05;;;0.40;;
51475;SDS011;37554;50.362;7.568;2022-09-09T14:58:43;1.73;;;0.38;;
51475;SDS011;37554;50.362;7.568;2022-09-09T15:01:11;0.85;;;0.35;;
51475;SDS011;37554;50.362;7.568;2022-09-09T15:03:38;2.45;;;0.50;;
51475;SDS011;37554;50.362;7.568;2022-09-09T15:06:11;1.85;;;0.75;;
51475;SDS011;37554;50.362;7.568;2022-09-09T15:08:39;2.08;;;0.50;;
51475;SDS011;37554;50.362;7.568;2022-09-09T15:11:06;1.92;;;0.47;;
51475;SDS011;37554;50.362;7.568;2022-09-09T15:13:32;1.88;;;0.50;;
51475;SDS011;37554;50.362;7.568;2022-09-09T15:16:13;4.97;;;0.63;;
51475;SDS011;37554;50.362;7.568;2022-09-09T15:18:40;1.88;;;0.63;;
51475;SDS011;37554;50.362;7.568;2022-09-09T15:21:10;1.20;;;0.40;;
51475;SDS011;37554;50.362;7.568;2022-09-09T15:23:36;2.95;;;0.60;;
51475;SDS011;37554;50.362;7.568;2022-09-09T15:26:02;2.88;;;0.40;;
51475;SDS011;37554;50.362;7.568;2022-09-09T15:28:29;3.22;;;0.95;;
51475;SDS011;37554;50.362;7.568;2022-09-09T15:30:56;1.95;;;0.40;;
51475;SDS011;37554;50.362;7.568;2022-09-09T15:33:23;1.30;;;0.50;;
51475;SDS011;37554;50.362;7.568;2022-09-09T15:35:48;2.15;;;0.43;;
51475;SDS011;37554;50.362;7.568;2022-09-09T15:38:14;3.10;;;0.40;;
51475;SDS011;37554;50.362;7.568;2022-09-09T15:40:42;2.30;;;0.38;;
51475;SDS011;37554;50.362;7.568;2022-09-09T15:43:08;2.35;;;0.60;;
51475;SDS011;37554;50.362;7.568;2022-09-09T15:45:34;2.00;;;0.45;;
51475;SDS011;37554;50.362;7.568;2022-09-09T15:48:00;2.10;;;0.63;;
51475;SDS011;37554;50.362;7.568;2022-09-09T15:50:27;1.98;;;0.35;;
51475;SDS011;37554;50.362;7.568;2022-09-09T15:52:54;3.80;;;0.57;;
51475;SDS011;37554;50.362;7.568;2022-09-09T15:55:20;2.72;;;0.47;;
51475;SDS011;37554;50.362;7.568;2022-09-09T15:57:46;2.10;;;0.65;;
51475;SDS011;37554;50.362;7.568;2022-09-09T16:00:12;0.85;;;0.30;;
51475;SDS011;37554;50.362;7.568;2022-09-09T16:02:39;2.33;;;0.60;;
51475;SDS011;37554;50.362;7.568;2022-09-09T16:05:05;1.85;;;0.40;;
51475;SDS011;37554;50.362;7.568;2022-09-09T16:07:31;1.60;;;0.50;;
51475;SDS011;37554;50.362;7.568;2022-09-09T16:09:56;1.42;;;0.43;;
51475;SDS011;37554;50.362;7.568;2022-09-09T16:12:22;1.73;;;0.50;;
51475;SDS011;37554;50.362;7.568;2022-09-09T16:14:48;1.63;;;0.43;;
51475;SDS011;37554;50.362;7.568;2022-09-09T16:17:13;2.38;;;0.77;;
51475;SDS011;37554;50.362;7.568;2022-09-09T16:19:40;1.17;;;0.40;;
51475;SDS011;37554;50.362;7.568;2022-09-09T16:22:06;1.27;;;0.47;;
51475;SDS011;37554;50.362;7.568;2022-09-09T16:24:31;1.33;;;0.50;;
51475;SDS011;37554;50.362;7.568;2022-09-09T16:26:57;1.50;;;0.40;;
51475;SDS011;37554;50.362;7.568;2022-09-09T16:29:23;3.20;;;0.70;;
51475;SDS011;37554;50.362;7.568;2022-09-09T16:31:52;1.45;;;0.50;;
51475;SDS011;37554;50.362;7.568;2022-09-09T16:34:18;2.97;;;0.60;;
51475;SDS011;37554;50.362;7.568;2022-09-09T16:36:45;1.45;;;0.40;;
51475;SDS011;37554;50.362;7.568;2022-09-09T16:39:14;2.13;;;0.70;;
51475;SDS011;37554;50.362;7.568;2022-09-09T16:41:41;1.70;;;0.40;;
51475;SDS011;37554;50.362;7.568;2022-09-09T16:44:09;1.67;;;0.45;;
51475;SDS011;37554;50.362;7.568;2022-09-09T16:46:39;1.95;;;0.50;;
51475;SDS011;37554;50.362;7.568;2022-09-09T16:49:07;0.85;;;0.40;;
51475;SDS011;37554;50.362;7.568;2022-09-09T16:51:38;3.20;;;0.45;;
51475;SDS011;37554;50.362;7.568;2022-09-09T16:54:06;1.75;;;0.75;;
51475;SDS011;37554;50.362;7.568;2022-09-09T16:56:33;1.35;;;0.50;;
51475;SDS011;37554;50.362;7.568;2022-09-09T16:59:02;2.38;;;0.52;;
51475;SDS011;37554;50.362;7.568;2022-09-09T17:01:43;1.83;;;0.40;;
51475;SDS011;37554;50.362;7.568;2022-09-09T17:04:11;1.35;;;0.50;;
51475;SDS011;37554;50.362;7.568;2022-09-09T17:06:40;2.50;;;0.55;;
51475;SDS011;37554;50.362;7.568;2022-09-09T17:09:10;0.80;;;0.40;;
51475;SDS011;37554;50.362;7.568;2022-09-09T17:11:37;1.17;;;0.40;;
51475;SDS011;37554;50.362;7.568;2022-09-09T17:14:04;1.75;;;0.40;;
51475;SDS011;37554;50.362;7.568;2022-09-09T17:16:32;2.42;;;0.50;;
51475;SDS011;37554;50.362;7.568;2022-09-09T17:19:02;1.25;;;0.40;;
51475;SDS011;37554;50.362;7.568;2022-09-09T17:21:28;1.92;;;0.50;;
51475;SDS011;37554;50.362;7.568;2022-09-09T17:23:55;0.70;;;0.35;;
51475;SDS011;37554;50.362;7.568;2022-09-09T17:26:23;1.92;;;0.73;;